Terminal Aerodrome Forecast
Issued by NWS Louisville, KY

Home | Current Version | Previous Version | Text Only | Print | Product List | Glossary On
Versions: 1 2 3 4 5 6 7 8 9 10 11 12 13 14 15 16 17
000
FTUS43 KLMK 241700
TAFBWG
TAF
KBWG 241720Z 2418/2518 10005KT P6SM SCT015 BKN060
     FM250000 VRB03KT P6SM FEW030 SCT250
     FM250800 00000KT 4SM BR FEW015 BKN250
     FM251400 22004KT P6SM BKN025=

USA.gov is the U.S. government's official web portal to all federal, state and local government web resources and services.